KRHI/RHI METAR and TAF weather

Enter ICAO airport designator
Station Type Date Time Source
KRHI METAR 2019/04/23 03:53 UTC NOAA

KRHI 230353Z AUTO 03005G18KT 10SM OVC006 04/02 A2998 RMK AO2 CIG 005V010 SLP161 T00440022


Station Type Date Time Source
KRHI Decoded METAR 2019/04/23 03:53 UTC NOAA

RHINELANDER-ONEIDA CO AIRPORT , WI, United States (KRHI) 45-38N 89-29W 485M
Apr 22, 2019 - 11:53 PM EDT / 2019.04.23 0353 UTC
Wind: from the NNE (030 degrees) at 6 MPH (5 KT) gusting to 21 MPH (18 KT):0
Visibility: 10 mile(s):0
Sky conditions: overcast
Temperature: 39.9 F (4.4 C)
Dew Point: 36.0 F (2.2 C)
Relative Humidity: 85%
Pressure (altimeter): 29.98 in. Hg (1015 hPa)
ob: KRHI 230353Z AUTO 03005G18KT 10SM OVC006 04/02 A2998 RMK AO2 CIG 005V010 SLP161 T00440022
cycle: 4

Station Type Date Time Source
KRHI TAF 2019/04/22 21:42 UTC NOAA

TAF
AMD KRHI 222039Z 2221/2318 01007G15KT P6SM -SHRA OVC009
TEMPO 2221/2224 3SM -SHRA BR SCT009 OVC015
FM230000 04010G18KT 4SM -SHRA BR OVC006
FM230700 36009G16KT P6SM OVC006
FM231200 34008G15KT P6SM BKN015
FM231500 34010G16KT P6SM SKC

Example: see airport list